Time;durP1;ratioP1;P1;durP2;ratioP2;P2;SDS_P1;SDS_P2;PMS_P1;PMS_P2;Temp;Humidity;BMP_temperature;BMP_pressure;BME280_temperature;BME280_humidity;BME280_pressure;Samples;Min_cycle;Max_cycle;Signal;HPM_P1;HPM_P2
2021/05/30 00:00:27;;;;;;;18.83;14.50;;;;;;;9.99;70.10;101439.44;5035745;28;20064;-60
2021/05/30 00:02:55;;;;;;;18.20;13.70;;;;;;;9.90;69.92;101446.72;5035577;28;20145;-60
2021/05/30 00:05:21;;;;;;;19.42;13.73;;;;;;;9.89;69.68;101439.47;5035615;28;20057;-60
2021/05/30 00:07:48;;;;;;;21.10;14.05;;;;;;;9.87;69.91;101437.00;5035470;28;20057;-59
2021/05/30 00:10:16;;;;;;;22.10;15.73;;;;;;;9.81;70.11;101431.75;5054325;28;20053;-59
2021/05/30 00:12:43;;;;;;;19.77;15.65;;;;;;;9.79;70.16;101431.22;5055451;28;20429;-60
2021/05/30 00:15:10;;;;;;;22.52;15.73;;;;;;;9.80;69.84;101436.47;5055311;28;20406;-59
2021/05/30 00:17:38;;;;;;;23.23;16.30;;;;;;;9.78;70.36;101435.09;5055550;28;20489;-59
2021/05/30 00:20:06;;;;;;;21.42;15.50;;;;;;;9.83;70.09;101427.56;5055246;28;20056;-59
2021/05/30 00:22:33;;;;;;;22.67;16.23;;;;;;;9.83;70.18;101438.69;5054525;28;20056;-60
2021/05/30 00:25:00;;;;;;;20.92;14.98;;;;;;;9.78;70.35;101433.16;5054499;28;20049;-59
2021/05/30 00:27:27;;;;;;;23.58;16.02;;;;;;;9.73;69.81;101428.44;5054988;28;20057;-60
2021/05/30 00:29:55;;;;;;;22.55;16.98;;;;;;;9.63;70.01;101439.59;5055393;28;20167;-60
2021/05/30 00:32:22;;;;;;;23.85;16.15;;;;;;;9.65;69.82;101428.22;5055306;28;20068;-59
2021/05/30 00:34:49;;;;;;;18.00;14.85;;;;;;;9.65;69.80;101431.81;5055281;28;20049;-60
2021/05/30 00:37:16;;;;;;;17.73;14.55;;;;;;;9.64;70.28;101426.53;5036004;28;20509;-60
2021/05/30 00:39:43;;;;;;;21.70;14.40;;;;;;;9.61;69.61;101441.84;5035104;28;20053;-60
2021/05/30 00:42:10;;;;;;;20.13;15.55;;;;;;;9.60;69.48;101437.41;5045497;28;20055;-60
2021/05/30 00:44:37;;;;;;;20.50;15.88;;;;;;;9.48;69.84;101437.72;5054993;28;20049;-59
2021/05/30 00:47:04;;;;;;;23.83;16.63;;;;;;;9.43;70.76;101440.53;5054759;28;20509;-59
2021/05/30 00:49:31;;;;;;;21.88;16.00;;;;;;;9.42;70.61;101436.06;5054541;28;20065;-59
2021/05/30 00:51:59;;;;;;;21.65;15.27;;;;;;;9.48;70.83;101429.38;5054754;28;20049;-59
2021/05/30 00:54:26;;;;;;;22.67;15.27;;;;;;;9.44;70.00;101430.22;5054384;28;20052;-59
2021/05/30 00:56:53;;;;;;;21.15;14.18;;;;;;;9.45;69.85;101434.66;5054212;28;20068;-59
2021/05/30 00:59:20;;;;;;;19.42;15.02;;;;;;;9.42;69.82;101438.03;5054752;28;20060;-59
2021/05/30 01:01:49;;;;;;;20.60;13.85;;;;;;;9.38;69.42;101429.41;5054703;28;20049;-58
2021/05/30 01:04:16;;;;;;;21.08;14.55;;;;;;;9.37;69.83;101433.31;5054506;28;20056;-59
2021/05/30 01:06:43;;;;;;;17.95;13.15;;;;;;;9.31;69.97;101428.88;5054155;28;20052;-59
2021/05/30 01:09:11;;;;;;;19.10;13.38;;;;;;;9.28;70.11;101433.06;5054077;28;20049;-59
2021/05/30 01:11:38;;;;;;;17.85;13.52;;;;;;;9.28;69.86;101429.44;5053547;28;20397;-58
2021/05/30 01:14:08;;;;;;;19.58;13.55;;;;;;;9.25;69.70;101425.28;5054409;28;20053;-59
2021/05/30 01:16:34;;;;;;;20.00;13.93;;;;;;;9.26;70.08;101431.66;5054249;28;20049;-59
2021/05/30 01:19:05;;;;;;;22.55;15.50;;;;;;;9.19;70.11;101426.41;5054082;28;20067;-58
2021/05/30 01:21:32;;;;;;;23.48;15.75;;;;;;;9.07;69.96;101428.66;5053425;28;20497;-60
2021/05/30 01:24:00;;;;;;;26.52;16.92;;;;;;;9.04;70.31;101435.59;5053315;28;20481;-59
2021/05/30 01:26:27;;;;;;;24.63;16.67;;;;;;;8.98;70.32;101433.13;5052907;28;20064;-58
2021/05/30 01:28:54;;;;;;;25.90;16.52;;;;;;;8.94;70.84;101436.47;5053856;28;20469;-57
2021/05/30 01:31:21;;;;;;;26.25;17.77;;;;;;;8.99;70.10;101432.84;5053898;28;20692;-58
2021/05/30 01:33:48;;;;;;;24.63;16.85;;;;;;;8.97;70.35;101423.13;5052713;28;20052;-59
2021/05/30 01:36:15;;;;;;;21.52;15.73;;;;;;;8.97;69.76;101425.91;5043413;28;20439;-59
2021/05/30 01:38:42;;;;;;;23.33;16.92;;;;;;;8.91;70.79;101425.91;5034144;28;20064;-59
2021/05/30 01:41:10;;;;;;;23.35;16.55;;;;;;;8.88;70.50;101436.72;5035054;28;20064;-58
2021/05/30 01:43:37;;;;;;;21.20;15.38;;;;;;;8.85;69.79;101427.03;5053529;28;20048;-59
2021/05/30 01:46:04;;;;;;;23.73;16.05;;;;;;;8.89;70.33;101428.13;5053605;28;20049;-60
2021/05/30 01:48:31;;;;;;;22.75;16.40;;;;;;;8.89;70.45;101432.84;5053335;28;20057;-57
2021/05/30 01:50:58;;;;;;;21.38;15.15;;;;;;;8.78;71.06;101426.47;5053634;28;20409;-59
2021/05/30 01:53:29;;;;;;;22.73;15.95;;;;;;;8.76;70.36;101441.75;5053095;28;20056;-57
2021/05/30 01:58:43;;;;;;;27.15;17.08;;;;;;;8.60;70.67;101438.97;5032534;28;20061;-59
2021/05/30 02:01:15;;;;;;;26.20;16.13;;;;;;;8.54;70.65;101432.56;5033651;28;20049;-58
2021/05/30 02:03:46;;;;;;;26.02;16.60;;;;;;;8.55;71.04;101436.22;5033531;28;20398;-56
2021/05/30 02:06:16;;;;;;;29.40;18.40;;;;;;;8.51;70.68;101438.69;5033000;28;20057;-58
2021/05/30 02:08:44;;;;;;;26.05;16.13;;;;;;;8.44;71.58;101446.47;5037847;28;20053;-58
2021/05/30 02:11:13;;;;;;;25.00;15.82;;;;;;;8.46;71.28;101435.94;5052904;28;20401;-56
2021/05/30 02:13:41;;;;;;;20.90;14.50;;;;;;;8.47;71.05;101439.53;5053375;28;20053;-59
2021/05/30 02:16:09;;;;;;;21.77;14.63;;;;;;;8.47;70.39;101442.31;5053267;28;20052;-58
2021/05/30 02:18:36;;;;;;;21.77;15.25;;;;;;;8.53;70.00;101446.75;5053105;28;20053;-58
2021/05/30 02:21:02;;;;;;;23.42;14.65;;;;;;;8.50;70.02;101434.28;5053194;28;20060;-60
2021/05/30 02:23:32;;;;;;;22.63;15.25;;;;;;;8.43;70.54;101436.47;5051919;28;20060;-60
2021/05/30 02:25:58;;;;;;;25.10;15.13;;;;;;;8.31;70.12;101430.31;5052827;28;20053;-59
2021/05/30 02:28:25;;;;;;;24.27;15.90;;;;;;;8.27;70.91;101432.81;5052554;28;20059;-59
2021/05/30 02:30:53;;;;;;;21.77;15.43;;;;;;;8.26;71.03;101430.31;5052639;28;20049;-60
2021/05/30 02:33:20;;;;;;;20.08;14.75;;;;;;;8.28;70.38;101428.09;5052740;28;20505;-59
2021/05/30 02:35:47;;;;;;;24.33;15.45;;;;;;;8.27;70.94;101431.97;5046552;28;20056;-59
2021/05/30 02:38:14;;;;;;;24.35;15.00;;;;;;;8.15;70.66;101429.47;5032841;28;20513;-60
2021/05/30 02:40:41;;;;;;;25.25;16.73;;;;;;;8.13;71.15;101432.50;5032950;28;20498;-58
2021/05/30 02:43:08;;;;;;;23.15;15.43;;;;;;;8.11;70.79;101431.94;5050453;28;20045;-58
2021/05/30 02:45:35;;;;;;;26.73;16.42;;;;;;;8.10;71.08;101432.22;5052302;28;20482;-58
2021/05/30 02:48:03;;;;;;;22.75;15.23;;;;;;;8.05;71.18;101432.22;5052101;28;20417;-57
2021/05/30 02:50:29;;;;;;;22.02;14.25;;;;;;;8.06;71.20;101431.94;5052461;28;20065;-59
2021/05/30 02:52:56;;;;;;;24.48;15.43;;;;;;;8.02;71.07;101439.16;5052265;28;20049;-58
2021/05/30 02:55:24;;;;;;;24.70;16.23;;;;;;;7.97;70.71;101443.84;5052171;28;20068;-58
2021/05/30 02:57:50;;;;;;;27.73;15.95;;;;;;;7.93;70.86;101440.78;5052825;28;20053;-59
2021/05/30 03:00:19;;;;;;;27.33;16.48;;;;;;;7.91;71.29;101435.50;5052516;28;20053;-57
2021/05/30 03:02:46;;;;;;;26.55;16.58;;;;;;;7.86;70.96;101431.88;5052400;28;20501;-58
2021/05/30 03:05:14;;;;;;;24.23;16.27;;;;;;;7.88;71.21;101435.22;5052217;28;20053;-58
2021/05/30 03:07:42;;;;;;;22.48;14.93;;;;;;;7.84;70.97;101434.94;5052674;28;20060;-58
2021/05/30 03:10:10;;;;;;;27.10;16.45;;;;;;;7.83;71.15;101436.06;5052045;28;20387;-58
2021/05/30 03:12:37;;;;;;;26.73;16.42;;;;;;;7.87;70.51;101441.88;5052304;28;20056;-60
2021/05/30 03:15:06;;;;;;;23.25;15.77;;;;;;;7.84;71.04;101434.09;5052650;28;20060;-59
2021/05/30 03:17:33;;;;;;;27.55;16.65;;;;;;;7.86;70.76;101437.44;5052309;28;20429;-59
2021/05/30 03:19:59;;;;;;;25.55;15.98;;;;;;;7.90;70.91;101441.34;5052529;28;20068;-58
2021/05/30 03:22:27;;;;;;;26.38;16.88;;;;;;;7.91;70.62;101440.22;5052480;28;20056;-59
2021/05/30 03:24:56;;;;;;;23.60;15.63;;;;;;;7.90;70.72;101436.63;5051537;28;20076;-59
2021/05/30 03:27:23;;;;;;;25.20;16.35;;;;;;;7.86;70.47;101443.81;5052155;28;20421;-59
2021/05/30 03:29:50;;;;;;;25.05;16.70;;;;;;;7.76;70.62;101442.94;5052071;28;20056;-58
2021/05/30 03:32:17;;;;;;;25.92;17.45;;;;;;;7.70;70.66;101444.84;5052318;28;20057;-59
2021/05/30 03:34:44;;;;;;;31.73;19.52;;;;;;;7.73;71.11;101438.78;5052392;28;20053;-59
2021/05/30 03:37:10;;;;;;;32.63;19.98;;;;;;;7.80;72.32;101444.91;5034072;28;20064;-58
2021/05/30 03:39:42;;;;;;;33.00;19.95;;;;;;;7.86;72.11;101451.31;5048014;28;20075;-58
2021/05/30 03:42:13;;;;;;;41.88;21.33;;;;;;;8.00;72.42;101446.06;5052082;28;20053;-56
2021/05/30 03:44:40;;;;;;;52.88;23.23;;;;;;;8.15;72.29;101454.44;5052083;28;20469;-57
2021/05/30 03:47:11;;;;;;;37.78;21.77;;;;;;;8.18;72.55;101441.97;5052324;28;20064;-58
2021/05/30 03:49:38;;;;;;;39.90;21.45;;;;;;;8.24;73.20;101438.09;5051656;28;20060;-59
2021/05/30 03:52:05;;;;;;;39.55;20.88;;;;;;;8.30;73.22;101448.09;5051967;28;20053;-57
2021/05/30 03:54:32;;;;;;;39.47;21.92;;;;;;;8.38;72.17;101441.13;5051619;28;20060;-59
2021/05/30 03:57:01;;;;;;;32.33;19.95;;;;;;;8.52;72.45;101450.63;5053317;28;20490;-59
2021/05/30 03:59:28;;;;;;;30.10;19.27;;;;;;;8.59;71.71;101455.91;5055461;28;20414;-60
2021/05/30 04:01:55;;;;;;;31.13;18.95;;;;;;;8.59;72.19;101450.34;5055584;28;20064;-59
2021/05/30 04:04:22;;;;;;;29.70;18.98;;;;;;;8.71;72.12;101448.13;5055244;28;20539;-59
2021/05/30 04:06:48;;;;;;;30.55;18.65;;;;;;;8.76;71.41;101448.16;5055314;28;20427;-60
2021/05/30 04:09:15;;;;;;;25.35;17.52;;;;;;;8.84;71.16;101447.59;5055545;28;20053;-59
2021/05/30 04:11:42;;;;;;;25.45;17.08;;;;;;;8.91;71.59;101445.34;5055365;28;20056;-59
2021/05/30 04:14:12;;;;;;;30.13;19.10;;;;;;;8.99;71.19;101446.75;5055462;28;20049;-59
2021/05/30 04:16:39;;;;;;;26.52;16.48;;;;;;;9.04;70.54;101445.91;5055485;28;20056;-57
2021/05/30 04:19:06;;;;;;;24.80;17.17;;;;;;;9.13;70.72;101444.19;5055320;28;20053;-59
2021/05/30 04:21:33;;;;;;;33.90;19.33;;;;;;;9.22;70.89;101444.47;5055162;28;20057;-59
2021/05/30 04:24:00;;;;;;;48.83;22.27;;;;;;;9.27;70.29;101445.28;5054342;28;20060;-57
2021/05/30 04:26:27;;;;;;;42.58;20.73;;;;;;;9.34;70.96;101448.63;5055105;28;20049;-59
2021/05/30 04:28:54;;;;;;;70.15;23.20;;;;;;;9.43;71.44;101454.44;5055023;28;20060;-59
2021/05/30 04:31:21;;;;;;;48.50;23.27;;;;;;;9.50;71.45;101448.56;5055114;28;20493;-58
2021/05/30 04:33:48;;;;;;;49.20;23.08;;;;;;;9.54;71.08;101449.66;5055158;28;20053;-59
2021/05/30 04:36:15;;;;;;;71.38;24.95;;;;;;;9.61;70.86;101449.38;5044663;28;20057;-56
2021/05/30 04:38:42;;;;;;;57.78;23.38;;;;;;;9.74;71.39;101441.25;5044026;28;20057;-55
2021/05/30 04:41:08;;;;;;;46.67;21.17;;;;;;;9.87;70.70;101441.72;5054890;28;20045;-59
2021/05/30 04:43:35;;;;;;;36.88;22.02;;;;;;;9.91;71.07;101440.03;5054799;28;20075;-59
2021/05/30 04:46:02;;;;;;;89.85;24.92;;;;;;;10.01;70.52;101444.72;5054855;28;20060;-60
2021/05/30 04:48:30;;;;;;;29.77;20.73;;;;;;;10.09;70.67;101444.13;5054123;28;20514;-60
2021/05/30 04:51:07;;;;;;;54.20;21.73;;;;;;;10.19;71.06;101443.25;5054425;28;20049;-59
2021/05/30 04:53:35;;;;;;;32.58;19.38;;;;;;;10.36;70.63;101450.09;5053689;28;20045;-59
2021/05/30 04:56:03;;;;;;;27.92;18.35;;;;;;;10.50;69.82;101447.50;5053734;28;20048;-59
2021/05/30 04:58:30;;;;;;;29.55;18.55;;;;;;;10.55;69.16;101450.25;5054386;28;20064;-59
2021/05/30 05:00:57;;;;;;;27.10;18.85;;;;;;;10.68;68.27;101454.31;5054300;28;20482;-60
2021/05/30 05:03:24;;;;;;;26.23;17.63;;;;;;;10.71;68.11;101445.41;5054206;28;20045;-59
2021/05/30 05:05:53;;;;;;;23.45;17.58;;;;;;;10.76;67.46;101447.28;5054381;28;20064;-57
2021/05/30 05:08:20;;;;;;;23.73;17.27;;;;;;;10.69;67.27;101447.63;5053571;28;20053;-59
2021/05/30 05:10:47;;;;;;;22.98;16.65;;;;;;;10.65;67.10;101440.16;5051511;28;20045;-59
2021/05/30 05:13:14;;;;;;;23.35;16.85;;;;;;;10.60;67.37;101443.78;5053770;28;20061;-59
2021/05/30 05:15:43;;;;;;;21.88;17.08;;;;;;;10.62;67.29;101446.28;5054020;28;20478;-58
2021/05/30 05:18:15;;;;;;;23.13;15.98;;;;;;;10.58;67.72;101443.25;5034659;28;20112;-58
2021/05/30 05:20:43;;;;;;;25.45;16.30;;;;;;;10.61;67.09;101451.03;5049944;28;20053;-57
2021/05/30 05:23:13;;;;;;;20.13;15.82;;;;;;;10.60;67.08;101451.31;5053554;28;20053;-60
2021/05/30 05:25:41;;;;;;;22.48;16.38;;;;;;;10.60;67.39;101454.13;5053000;28;20409;-59
2021/05/30 05:28:08;;;;;;;22.95;16.80;;;;;;;10.68;67.30;101456.28;5053413;28;20057;-58
2021/05/30 05:30:35;;;;;;;20.77;15.63;;;;;;;10.74;66.85;101460.69;5053898;28;20405;-58
2021/05/30 05:33:02;;;;;;;21.77;15.95;;;;;;;10.76;66.84;101450.09;5053354;28;20059;-60
2021/05/30 05:35:29;;;;;;;22.70;17.48;;;;;;;10.75;67.11;101462.34;5049058;28;20052;-59
2021/05/30 05:37:57;;;;;;;22.48;16.52;;;;;;;10.77;66.89;101454.53;5033675;28;20060;-59
2021/05/30 05:40:26;;;;;;;21.90;16.05;;;;;;;10.84;67.23;101452.25;5033650;28;20053;-59
2021/05/30 05:42:54;;;;;;;23.02;18.05;;;;;;;10.88;67.42;101450.53;5049369;28;20065;-59
2021/05/30 05:45:23;;;;;;;25.15;18.98;;;;;;;10.90;67.49;101456.66;5053313;28;20057;-60
2021/05/30 05:47:50;;;;;;;23.27;17.52;;;;;;;11.01;67.47;101459.34;5053390;28;20052;-60
2021/05/30 05:50:20;;;;;;;22.90;17.15;;;;;;;11.07;67.44;101463.75;5053074;28;20068;-58
2021/05/30 05:52:48;;;;;;;25.08;18.92;;;;;;;11.07;67.38;101459.00;5052917;28;20064;-59
2021/05/30 05:55:16;;;;;;;23.17;18.10;;;;;;;11.10;67.69;101463.16;5045127;28;20053;-59
2021/05/30 05:57:47;;;;;;;21.75;17.08;;;;;;;11.23;67.29;101468.03;5049758;28;20053;-59
2021/05/30 06:00:18;;;;;;;19.73;16.58;;;;;;;11.30;67.59;101462.97;5044948;28;20057;-58
2021/05/30 06:02:47;;;;;;;21.55;17.65;;;;;;;11.41;67.27;101466.47;5043703;28;20052;-60
2021/05/30 06:05:17;;;;;;;19.30;16.58;;;;;;;11.51;67.28;101460.78;5033523;28;20057;-59
2021/05/30 06:07:44;;;;;;;;;;;;;;;11.55;67.39;101452.66;5033719;28;20060;-56
2021/05/30 06:10:12;;;;;;;22.63;16.90;;;;;;;11.65;66.97;101458.09;5040930;28;19920;-59
2021/05/30 06:12:39;;;;;;;20.98;16.10;;;;;;;11.78;66.90;101453.78;5052962;28;20053;-58
2021/05/30 06:15:08;;;;;;;21.55;16.38;;;;;;;11.87;66.79;101467.88;5051314;28;20482;-59
2021/05/30 06:17:36;;;;;;;20.52;16.80;;;;;;;11.94;66.80;101462.78;5036957;28;20506;-59
2021/05/30 06:20:04;;;;;;;19.80;16.38;;;;;;;12.01;66.69;101459.63;5035711;28;20057;-59
2021/05/30 06:22:31;;;;;;;21.73;17.02;;;;;;;12.12;67.05;101461.16;5052720;28;20059;-59
2021/05/30 06:24:58;;;;;;;20.08;16.58;;;;;;;12.27;67.47;101460.94;5052220;28;20061;-59
2021/05/30 06:27:25;;;;;;;20.65;17.10;;;;;;;12.39;67.29;101460.50;5052568;28;20057;-60
2021/05/30 06:29:52;;;;;;;20.83;16.58;;;;;;;12.47;66.99;101461.75;5053032;28;20494;-59
2021/05/30 06:32:21;;;;;;;19.92;14.73;;;;;;;12.58;66.86;101471.66;5052816;28;20056;-59
2021/05/30 06:34:48;;;;;;;19.75;15.60;;;;;;;12.71;66.60;101465.28;5051922;28;20049;-59
2021/05/30 06:37:15;;;;;;;18.70;15.60;;;;;;;12.96;66.46;101469.63;5046948;28;20381;-59
2021/05/30 06:39:42;;;;;;;17.73;15.65;;;;;;;13.09;66.23;101468.00;5049965;28;20045;-59
2021/05/30 06:42:09;;;;;;;19.00;15.57;;;;;;;13.17;66.73;101472.88;5050990;28;20405;-59
2021/05/30 06:44:35;;;;;;;18.05;13.98;;;;;;;13.37;66.18;101470.88;5047702;28;20401;-58
2021/05/30 06:47:02;;;;;;;18.50;14.75;;;;;;;13.53;65.50;101466.66;5052231;28;20053;-59
2021/05/30 06:49:30;;;;;;;16.90;14.18;;;;;;;13.67;65.19;101468.59;5047020;28;20053;-59
2021/05/30 06:52:00;;;;;;;16.73;14.07;;;;;;;13.79;64.94;101468.91;5050035;28;20048;-60
2021/05/30 06:54:29;;;;;;;18.13;14.73;;;;;;;13.87;65.15;101472.97;5047133;28;20379;-59
2021/05/30 06:56:56;;;;;;;16.85;13.80;;;;;;;14.00;65.21;101469.31;5052378;28;20053;-59
2021/05/30 06:59:23;;;;;;;15.48;13.52;;;;;;;14.10;65.06;101469.09;5035732;28;20502;-58
2021/05/30 07:01:50;;;;;;;16.27;13.40;;;;;;;14.28;64.79;101463.66;5050748;28;20056;-59
2021/05/30 07:04:17;;;;;;;16.13;13.18;;;;;;;14.40;64.15;101456.38;5040611;28;20053;-59
2021/05/30 07:06:47;;;;;;;15.80;12.60;;;;;;;14.57;64.03;101463.28;5037205;28;20069;-59
2021/05/30 07:09:14;;;;;;;14.73;13.10;;;;;;;14.68;63.67;101466.66;5032389;28;20509;-58
2021/05/30 07:11:41;;;;;;;14.55;12.43;;;;;;;14.81;63.73;101460.19;5040613;28;20056;-58
2021/05/30 07:14:08;;;;;;;15.52;12.98;;;;;;;14.95;63.94;101469.38;5051873;28;20041;-58
2021/05/30 07:16:34;;;;;;;13.90;11.88;;;;;;;15.10;62.79;101458.88;5050650;28;20064;-60
2021/05/30 07:19:01;;;;;;;15.30;12.30;;;;;;;15.26;62.72;101454.50;5051738;28;20393;-59
2021/05/30 07:21:28;;;;;;;14.35;11.45;;;;;;;15.34;62.38;101462.16;5051598;28;20045;-60
2021/05/30 07:23:58;;;;;;;10.75;9.43;;;;;;;15.55;60.06;101462.41;5049948;28;20428;-60
2021/05/30 07:26:25;;;;;;;9.88;8.88;;;;;;;15.69;58.87;101464.31;5051652;28;20075;-60
2021/05/30 07:28:53;;;;;;;12.20;9.10;;;;;;;15.76;58.25;101459.06;5050153;28;20064;-59
2021/05/30 07:31:20;;;;;;;11.15;9.23;;;;;;;15.94;58.27;101468.38;5032904;28;20060;-64
2021/05/30 07:33:47;;;;;;;9.73;8.73;;;;;;;16.06;58.97;101460.13;5049292;28;20057;-64
2021/05/30 07:36:17;;;;;;;10.00;8.30;;;;;;;16.20;57.80;101460.81;5047154;28;20405;-64
2021/05/30 07:38:44;;;;;;;11.20;8.85;;;;;;;16.34;57.38;101460.66;5046359;28;20060;-64
2021/05/30 07:41:14;;;;;;;10.55;7.85;;;;;;;16.44;57.24;101459.50;5047620;28;20053;-65
2021/05/30 07:43:41;;;;;;;10.18;7.50;;;;;;;16.68;56.50;101455.38;5045979;28;20053;-65
2021/05/30 07:46:08;;;;;;;9.10;6.72;;;;;;;17.25;53.93;101453.13;5044935;28;20048;-65
2021/05/30 07:48:35;;;;;;;8.75;7.03;;;;;;;18.55;50.74;101453.59;5054701;28;20049;-65
2021/05/30 07:51:02;;;;;;;7.28;6.25;;;;;;;19.81;46.68;101453.25;5035685;28;20057;-65
2021/05/30 07:53:29;;;;;;;7.22;5.80;;;;;;;20.78;42.86;101461.09;5036075;28;20065;-65
2021/05/30 07:55:55;;;;;;;6.97;6.20;;;;;;;21.61;40.93;101452.88;5035448;28;20561;-65
2021/05/30 07:58:23;;;;;;;8.05;5.93;;;;;;;22.36;39.05;101445.34;5035435;28;20088;-65
2021/05/30 08:00:51;;;;;;;6.72;5.47;;;;;;;22.92;37.30;101450.56;5035239;28;20061;-65
2021/05/30 08:03:18;;;;;;;7.97;5.10;;;;;;;23.76;35.60;101446.06;5037027;28;20053;-65
2021/05/30 08:05:45;;;;;;;6.28;5.35;;;;;;;24.45;34.15;101445.06;5054951;28;20056;-65
2021/05/30 08:08:13;;;;;;;5.65;4.40;;;;;;;25.33;32.69;101446.53;5055244;28;20060;-65
2021/05/30 08:10:40;;;;;;;5.40;4.07;;;;;;;26.16;30.73;101441.50;5054979;28;20049;-65
2021/05/30 08:13:07;;;;;;;5.32;4.72;;;;;;;26.79;29.47;101434.50;5055347;28;20053;-66
2021/05/30 08:15:35;;;;;;;5.68;5.03;;;;;;;27.66;28.30;101441.22;5054916;28;20066;-65
2021/05/30 08:18:02;;;;;;;5.80;5.00;;;;;;;28.32;27.10;101435.81;5055292;28;20069;-66
2021/05/30 08:20:30;;;;;;;6.13;4.10;;;;;;;29.17;25.46;101424.41;5055499;28;20409;-66
2021/05/30 08:22:57;;;;;;;4.57;3.70;;;;;;;29.70;24.48;101426.06;5054752;28;20410;-65
2021/05/30 08:25:24;;;;;;;4.95;3.72;;;;;;;30.45;23.12;101420.78;5054186;28;20060;-65
2021/05/30 08:27:51;;;;;;;5.00;4.20;;;;;;;30.80;22.96;101422.38;5054770;28;20056;-65
2021/05/30 08:30:20;;;;;;;8.32;3.90;;;;;;;31.55;21.46;101421.31;5054528;28;20068;-65
2021/05/30 08:32:48;;;;;;;6.28;3.50;;;;;;;32.21;20.48;101421.75;5054828;28;20057;-65
2021/05/30 08:35:16;;;;;;;4.30;3.47;;;;;;;32.73;20.23;101423.19;5052563;28;20071;-65
2021/05/30 08:37:44;;;;;;;5.93;3.78;;;;;;;33.25;19.24;101418.75;5034986;28;20060;-65
2021/05/30 08:40:17;;;;;;;4.00;3.40;;;;;;;33.68;18.64;101420.56;5052971;28;20398;-65
2021/05/30 08:42:46;;;;;;;4.35;3.95;;;;;;;34.21;18.27;101421.25;5054750;28;20057;-65
2021/05/30 08:45:14;;;;;;;5.25;3.83;;;;;;;34.75;17.28;101414.72;5054689;28;20049;-65
2021/05/30 08:47:41;;;;;;;4.00;3.60;;;;;;;35.52;16.69;101414.72;5054582;28;20513;-65
2021/05/30 08:50:10;;;;;;;4.15;3.58;;;;;;;35.90;16.44;101413.84;5054395;28;20410;-65
2021/05/30 08:52:37;;;;;;;4.85;3.70;;;;;;;36.29;16.48;101410.81;5054415;28;20048;-65
2021/05/30 08:55:05;;;;;;;4.82;3.78;;;;;;;36.91;15.35;101415.91;5053945;28;20075;-65
2021/05/30 08:57:32;;;;;;;5.28;3.20;;;;;;;37.30;15.08;101401.91;5054467;28;20438;-65
2021/05/30 08:59:59;;;;;;;4.40;3.60;;;;;;;37.81;14.25;101404.28;5054812;28;20049;-65
2021/05/30 09:02:26;;;;;;;3.63;3.30;;;;;;;38.03;13.96;101401.25;5054484;28;20060;-66
2021/05/30 09:04:55;;;;;;;3.60;3.30;;;;;;;38.71;13.56;101401.03;5054481;28;20053;-66
2021/05/30 09:07:42;;;;;;;3.70;3.40;;;;;;;39.28;13.46;101406.16;5054331;28;20053;-66
2021/05/30 09:10:11;;;;;;;4.33;3.33;;;;;;;39.45;13.29;101399.94;5054493;28;20075;-66
2021/05/30 09:12:39;;;;;;;3.60;3.30;;;;;;;39.87;12.14;101402.75;5053958;28;20049;-66
2021/05/30 09:15:11;;;;;;;3.25;2.95;;;;;;;40.34;12.74;101398.16;5053976;28;20056;-66
2021/05/30 09:17:38;;;;;;;4.05;3.55;;;;;;;40.91;12.69;101402.06;5054150;28;20052;-66
2021/05/30 09:20:07;;;;;;;5.05;3.67;;;;;;;41.43;11.36;101399.47;5054169;28;20059;-66
2021/05/30 09:22:36;;;;;;;5.00;3.85;;;;;;;41.77;11.87;101391.97;5054084;28;20057;-66
2021/05/30 09:25:22;;;;;;;3.53;3.22;;;;;;;42.57;10.03;101396.66;5052483;28;20049;-66
2021/05/30 09:27:51;;;;;;;5.70;3.58;;;;;;;42.45;10.22;101397.84;5053786;28;20057;-66
2021/05/30 09:30:39;;;;;;;3.70;3.10;;;;;;;42.22;10.73;101400.50;5053603;28;20056;-66
2021/05/30 09:33:15;;;;;;;5.32;3.20;;;;;;;43.32;9.99;101390.84;5053815;28;20059;-66
2021/05/30 09:35:53;;;;;;;4.13;3.53;;;;;;;43.67;9.46;101389.75;5053537;28;20060;-66
2021/05/30 09:38:27;;;;;;;4.20;3.80;;;;;;;43.88;9.59;101381.56;5053810;28;20053;-66
2021/05/30 09:40:56;;;;;;;3.53;3.00;;;;;;;44.03;9.64;101390.94;5052285;28;20057;-66
2021/05/30 09:43:25;;;;;;;3.97;3.67;;;;;;;44.43;8.93;101388.13;5053081;28;20053;-66
2021/05/30 09:46:04;;;;;;;4.28;3.53;;;;;;;43.72;9.39;101388.94;5053635;28;20053;-65
2021/05/30 09:48:34;;;;;;;3.63;2.95;;;;;;;44.73;8.55;101380.41;5053337;28;20065;-66
2021/05/30 09:51:22;;;;;;;2.72;2.53;;;;;;;44.81;8.34;101383.59;5052428;28;20060;-66
2021/05/30 09:53:55;;;;;;;2.75;2.55;;;;;;;45.50;8.17;101377.09;5042026;28;20052;-66
2021/05/30 09:56:34;;;;;;;3.95;3.13;;;;;;;45.80;7.54;101375.66;5035052;28;20504;-66
2021/05/30 09:59:03;;;;;;;3.40;2.78;;;;;;;46.50;7.39;101379.31;5036150;28;20053;-66
2021/05/30 10:01:52;;;;;;;2.70;2.50;;;;;;;47.08;6.70;101381.97;5051489;28;20049;-66
2021/05/30 10:04:20;;;;;;;2.60;2.40;;;;;;;47.36;6.06;101380.94;5044313;28;20060;-66
2021/05/30 10:06:47;;;;;;;;;;;;;;;46.43;6.21;101376.94;5052665;28;20049;-64
2021/05/30 10:09:14;;;;;;;3.10;2.55;;;;;;;46.69;6.88;101379.41;5050290;28;19928;-66
2021/05/30 10:11:42;;;;;;;2.60;2.40;;;;;;;47.27;6.09;101372.44;5052525;28;20052;-65
2021/05/30 10:14:11;;;;;;;2.70;2.38;;;;;;;47.40;5.57;101378.47;5052859;28;20053;-66
2021/05/30 10:16:39;;;;;;;2.60;2.40;;;;;;;47.70;5.46;101377.56;5045143;28;20053;-65
2021/05/30 10:19:08;;;;;;;;;;;;;;;46.71;6.44;101379.66;5052236;28;20051;-65
2021/05/30 10:21:41;;;;;;;4.15;3.05;;;;;;;46.25;6.40;101379.19;5052704;28;20340;-65
2021/05/30 10:24:11;;;;;;;2.92;2.63;;;;;;;45.86;7.35;101373.50;5052595;28;20532;-65
2021/05/30 10:26:38;;;;;;;2.78;2.35;;;;;;;46.88;6.71;101373.63;5052630;28;20056;-65
2021/05/30 10:29:13;;;;;;;3.47;3.17;;;;;;;47.42;5.88;101360.19;5053102;28;20057;-65
2021/05/30 10:31:43;;;;;;;8.15;4.30;;;;;;;47.70;5.96;101372.47;5052585;28;20053;-65
2021/05/30 10:34:27;;;;;;;4.28;3.25;;;;;;;47.68;5.45;101372.22;5052515;28;20063;-65
2021/05/30 10:37:26;;;;;;;3.47;2.60;;;;;;;47.30;5.75;101362.47;5037110;28;20061;-65
2021/05/30 10:39:56;;;;;;;3.22;2.60;;;;;;;47.81;5.63;101358.91;4991646;28;20113;-65
2021/05/30 10:42:25;;;;;;;2.60;2.40;;;;;;;47.83;5.80;101365.06;5031615;28;20049;-65
2021/05/30 10:45:00;;;;;;;2.50;2.30;;;;;;;47.51;5.36;101359.81;5049868;28;20068;-65
2021/05/30 10:48:19;;;;;;;3.10;2.53;;;;;;;47.22;5.11;101355.59;5043761;28;20056;-65
2021/05/30 10:50:57;;;;;;;3.10;2.50;;;;;;;47.38;5.31;101351.66;5052921;28;20053;-65
2021/05/30 10:53:31;;;;;;;3.55;2.38;;;;;;;47.41;5.95;101347.56;5051321;28;20049;-65
2021/05/30 10:56:15;;;;;;;3.55;2.78;;;;;;;47.73;5.83;101352.81;5051816;28;20060;-65
2021/05/30 10:58:42;;;;;;;2.85;2.65;;;;;;;47.45;5.77;101351.03;5052271;28;20478;-65
2021/05/30 11:01:38;;;;;;;;;;;;;;;47.43;5.81;101350.78;5052912;28;20048;-65
2021/05/30 11:04:32;;;;;;;2.50;2.22;;;;;;;47.28;6.27;101336.47;5052429;28;19936;-65
2021/05/30 11:07:01;;;;;;;2.70;2.50;;;;;;;47.89;5.28;101348.06;5055921;28;20056;-65
2021/05/30 11:10:01;;;;;;;4.15;2.58;;;;;;;47.56;5.80;101342.03;5055569;28;20378;-65
2021/05/30 11:12:30;;;;;;;3.10;2.28;;;;;;;47.66;5.94;101345.41;5056110;28;20057;-65
2021/05/30 11:15:19;;;;;;;2.60;2.40;;;;;;;47.51;5.92;101342.09;5056457;28;20052;-65
2021/05/30 11:17:49;;;;;;;2.50;2.30;;;;;;;47.53;5.61;101339.41;5056687;28;20068;-65
2021/05/30 11:20:19;;;;;;;2.60;2.40;;;;;;;46.60;6.02;101339.25;5056306;28;20057;-65
2021/05/30 11:22:48;;;;;;;3.17;2.25;;;;;;;47.01;5.83;101335.41;5055942;28;20049;-65
2021/05/30 11:25:16;;;;;;;2.20;1.92;;;;;;;46.77;5.62;101331.09;5055012;28;20048;-65
2021/05/30 11:27:58;;;;;;;2.08;1.88;;;;;;;46.86;6.00;101335.03;5055841;28;20053;-65
2021/05/30 11:30:49;;;;;;;3.30;2.60;;;;;;;46.71;6.13;101333.28;5055761;28;20055;-65